Campbell AAF (Fort Campbell) Air Field
KHOP : now visible

Airfield :











YOU CAN JOIN US ON...

 
LOGIN :

Register | Disclaimer

   EN    FR    IT 

 









Legend :    VFR   Marginal VFR   IFR   Intensive IFR   Very Intensive IFR
Visi :
Ceiling :
>= 8 km
>= 3000ft
5 to 8 km
1000 to 3000 ft
1500m to 5 km
500 to 1000 ft
800 to 1500m
200 to 500 ft
< 800m
< 200 ft
Symbols :   Thunderstorms  Fog  Heavy snow  Heavy precipitations  Wind > 20 kt






- Airport Elevation : 573 ft


KHOP - Campbell AAF (Fort Campbell) Air Field

CURRENT METAR :
  • 250733Z AUTO 25009KT 10SM BKN016 OVC027 03/02 A3001 RMK AO2 DZE03 SLP167

EXPIRED METARs :
  • 250703Z AUTO 25010KT 10SM BKN014 OVC022 02/02 A3000 RMK AO2 DZE03 SLP164
  • 250656Z AUTO 25012KT 10SM -DZ BKN015 OVC020 03/02 A3001 RMK AO2 DZB53 SLP168 P0000 T00250022
  • 250641Z AUTO 24013KT 10SM OVC014 03/03 A3000 RMK AO2 SLP164
  • 250626Z AUTO 24008KT 10SM BKN015 BKN022 OVC031 03/03 A3000 RMK AO2 CIG 015V023 BKN015 V SCT SLP164
  • 250611Z AUTO 24007KT 10SM FEW015 BKN023 BKN029 OVC036 03/03 A3000 RMK AO2 SLP164
  • 250556Z AUTO 24008KT 10SM SCT024 OVC042 03/03 A3000 RMK AO2 DZB08E18 SLP164 P0000 60001 T00270026 10030 20024 400710024 52008
  • 250533Z AUTO 24010KT 10SM SCT014 BKN025 BKN030 OVC044 03/03 A3000 RMK AO2 DZB08E18 CIG 013V025 SLP164
  • 250518Z AUTO 25009KT 10SM BKN013 BKN024 OVC033 03/03 A3000 RMK AO2 DZB08E18 CIG 013V024 SLP164
  • 250508Z AUTO 25011KT 10SM -DZ SCT016 BKN024 OVC033 03/03 A2999 RMK AO2 DZB08 CIG 024V033 BKN V SCT SLP161
  • 250456Z AUTO 25011KT 10SM FEW013 SCT018 BKN035 BKN045 OVC060 03/03 A2999 RMK AO2 SLP161 T00280027

TAF AMD TAF KHOP
Valid from the 25 at 00:00 until the 26 at 06:00 UTC


250047Z 2500/2606 24010G15KT 8000 -RA OVC015 620207 QNH2990INS
BECMG 2506/2507 26012G18KT 9000 -DZ OVC015 620157 QNH3002INS
TEMPO 2507/2512 4800 -SN BR OVC007 620077
BECMG 2514/2515 26012G18KT 9999 NSW OVC020 620204 QNH3007INS
BECMG 2523/2524 26006KT 9999 BKN030 QNH3009INS TX05/2500Z TN01/2513Z



MET'MAP, your aeronautical weather chart ! - Copyright ORBIFLY December 2007 - Disclaimer

ORBIFLY MET'MAP TEAM :

Programming & Development : Alexandra Zaïnal
Concept & original design : Baudouin d'Aumeries
Assistance for programming : Marc-Olivier Méhu
Technical & hardware support : Manuel Goepfert

Contact : metmap@orbifly.com




SOURCES & CREDITS :

   NOAA       Earth
Advisory